sensor_id;sensor_type;location;lat;lon;timestamp;P1;durP1;ratioP1;P2;durP2;ratioP2
70169;SDS011;57543;45.442;9.212;2023-09-08T00:02:34;11.32;;;6.63;;
70169;SDS011;57543;45.442;9.212;2023-09-08T00:05:37;11.30;;;7.30;;
70169;SDS011;57543;45.442;9.212;2023-09-08T00:08:44;13.48;;;6.85;;
70169;SDS011;57543;45.442;9.212;2023-09-08T00:11:47;10.30;;;6.90;;
70169;SDS011;57543;45.442;9.212;2023-09-08T00:14:50;12.48;;;7.00;;
70169;SDS011;57543;45.442;9.212;2023-09-08T00:17:54;12.45;;;7.35;;
70169;SDS011;57543;45.442;9.212;2023-09-08T00:21:02;11.77;;;7.32;;
70169;SDS011;57543;45.442;9.212;2023-09-08T00:24:05;11.23;;;7.22;;
70169;SDS011;57543;45.442;9.212;2023-09-08T00:27:09;9.30;;;6.43;;
70169;SDS011;57543;45.442;9.212;2023-09-08T00:30:15;10.20;;;6.28;;
70169;SDS011;57543;45.442;9.212;2023-09-08T00:33:18;11.68;;;6.95;;
70169;SDS011;57543;45.442;9.212;2023-09-08T00:36:22;10.57;;;6.75;;
70169;SDS011;57543;45.442;9.212;2023-09-08T00:39:26;12.13;;;6.65;;
70169;SDS011;57543;45.442;9.212;2023-09-08T00:42:30;10.17;;;6.70;;
70169;SDS011;57543;45.442;9.212;2023-09-08T00:45:37;9.75;;;6.43;;
70169;SDS011;57543;45.442;9.212;2023-09-08T00:48:43;9.43;;;6.35;;
70169;SDS011;57543;45.442;9.212;2023-09-08T00:51:47;10.63;;;6.15;;
70169;SDS011;57543;45.442;9.212;2023-09-08T00:54:51;10.60;;;6.45;;
70169;SDS011;57543;45.442;9.212;2023-09-08T00:57:58;9.73;;;6.23;;
70169;SDS011;57543;45.442;9.212;2023-09-08T01:01:03;11.88;;;6.80;;
70169;SDS011;57543;45.442;9.212;2023-09-08T01:04:07;9.45;;;6.20;;
70169;SDS011;57543;45.442;9.212;2023-09-08T01:07:12;9.77;;;5.97;;
70169;SDS011;57543;45.442;9.212;2023-09-08T01:10:25;12.60;;;6.68;;
70169;SDS011;57543;45.442;9.212;2023-09-08T01:13:29;9.87;;;5.90;;
70169;SDS011;57543;45.442;9.212;2023-09-08T01:16:32;10.27;;;6.15;;
70169;SDS011;57543;45.442;9.212;2023-09-08T01:19:35;10.23;;;6.00;;
70169;SDS011;57543;45.442;9.212;2023-09-08T01:29:04;9.93;;;6.80;;
70169;SDS011;57543;45.442;9.212;2023-09-08T01:32:13;10.10;;;6.75;;
70169;SDS011;57543;45.442;9.212;2023-09-08T01:35:17;11.30;;;7.38;;
70169;SDS011;57543;45.442;9.212;2023-09-08T01:38:23;11.05;;;7.20;;
70169;SDS011;57543;45.442;9.212;2023-09-08T01:41:28;13.80;;;7.22;;
70169;SDS011;57543;45.442;9.212;2023-09-08T01:44:32;12.70;;;7.47;;
70169;SDS011;57543;45.442;9.212;2023-09-08T01:47:35;11.10;;;7.47;;
70169;SDS011;57543;45.442;9.212;2023-09-08T01:50:39;10.82;;;7.45;;
70169;SDS011;57543;45.442;9.212;2023-09-08T01:53:43;12.77;;;7.13;;
70169;SDS011;57543;45.442;9.212;2023-09-08T01:56:50;10.25;;;6.75;;
70169;SDS011;57543;45.442;9.212;2023-09-08T01:59:54;10.77;;;7.00;;
70169;SDS011;57543;45.442;9.212;2023-09-08T02:02:58;12.77;;;7.47;;
70169;SDS011;57543;45.442;9.212;2023-09-08T02:06:02;13.25;;;7.63;;
70169;SDS011;57543;45.442;9.212;2023-09-08T02:09:07;13.80;;;8.07;;
70169;SDS011;57543;45.442;9.212;2023-09-08T02:12:13;13.07;;;8.52;;
70169;SDS011;57543;45.442;9.212;2023-09-08T02:15:16;19.07;;;9.10;;
70169;SDS011;57543;45.442;9.212;2023-09-08T02:18:20;14.38;;;9.27;;
70169;SDS011;57543;45.442;9.212;2023-09-08T02:21:24;15.07;;;9.70;;
70169;SDS011;57543;45.442;9.212;2023-09-08T02:24:28;16.33;;;10.07;;
70169;SDS011;57543;45.442;9.212;2023-09-08T02:27:34;15.68;;;9.70;;
70169;SDS011;57543;45.442;9.212;2023-09-08T02:30:39;15.77;;;10.37;;
70169;SDS011;57543;45.442;9.212;2023-09-08T02:33:43;19.23;;;10.25;;
70169;SDS011;57543;45.442;9.212;2023-09-08T02:36:49;16.73;;;9.82;;
70169;SDS011;57543;45.442;9.212;2023-09-08T02:39:55;17.83;;;10.38;;
70169;SDS011;57543;45.442;9.212;2023-09-08T02:43:00;20.38;;;10.32;;
70169;SDS011;57543;45.442;9.212;2023-09-08T02:46:05;17.77;;;9.43;;
70169;SDS011;57543;45.442;9.212;2023-09-08T02:49:13;15.52;;;9.93;;
70169;SDS011;57543;45.442;9.212;2023-09-08T02:52:17;14.10;;;9.20;;
70169;SDS011;57543;45.442;9.212;2023-09-08T02:55:22;17.33;;;9.48;;
70169;SDS011;57543;45.442;9.212;2023-09-08T02:58:26;14.75;;;9.18;;
70169;SDS011;57543;45.442;9.212;2023-09-08T03:01:30;14.13;;;9.47;;
70169;SDS011;57543;45.442;9.212;2023-09-08T03:04:33;15.15;;;9.75;;
70169;SDS011;57543;45.442;9.212;2023-09-08T03:07:37;15.40;;;9.38;;
70169;SDS011;57543;45.442;9.212;2023-09-08T03:10:42;13.23;;;8.57;;
70169;SDS011;57543;45.442;9.212;2023-09-08T03:13:46;13.98;;;9.05;;
70169;SDS011;57543;45.442;9.212;2023-09-08T03:16:50;14.63;;;9.10;;
70169;SDS011;57543;45.442;9.212;2023-09-08T03:19:56;14.93;;;8.73;;
70169;SDS011;57543;45.442;9.212;2023-09-08T03:22:59;14.82;;;9.18;;
70169;SDS011;57543;45.442;9.212;2023-09-08T03:26:05;14.00;;;8.70;;
70169;SDS011;57543;45.442;9.212;2023-09-08T03:29:12;14.27;;;8.63;;
70169;SDS011;57543;45.442;9.212;2023-09-08T03:32:16;12.37;;;8.60;;
70169;SDS011;57543;45.442;9.212;2023-09-08T03:35:20;13.25;;;8.32;;
70169;SDS011;57543;45.442;9.212;2023-09-08T03:38:23;14.15;;;8.68;;
70169;SDS011;57543;45.442;9.212;2023-09-08T03:41:27;12.90;;;8.38;;
70169;SDS011;57543;45.442;9.212;2023-09-08T03:44:30;14.63;;;8.65;;
70169;SDS011;57543;45.442;9.212;2023-09-08T03:47:35;12.40;;;8.13;;
70169;SDS011;57543;45.442;9.212;2023-09-08T03:50:38;13.02;;;8.48;;
70169;SDS011;57543;45.442;9.212;2023-09-08T03:53:42;16.42;;;8.73;;
70169;SDS011;57543;45.442;9.212;2023-09-08T03:56:48;12.05;;;7.65;;
70169;SDS011;57543;45.442;9.212;2023-09-08T03:59:52;14.05;;;8.10;;
70169;SDS011;57543;45.442;9.212;2023-09-08T04:02:56;13.77;;;8.67;;
70169;SDS011;57543;45.442;9.212;2023-09-08T04:06:00;12.48;;;8.02;;
70169;SDS011;57543;45.442;9.212;2023-09-08T04:09:04;12.32;;;8.88;;
70169;SDS011;57543;45.442;9.212;2023-09-08T04:12:07;12.73;;;8.60;;
70169;SDS011;57543;45.442;9.212;2023-09-08T04:15:12;13.80;;;8.65;;
70169;SDS011;57543;45.442;9.212;2023-09-08T04:18:16;14.17;;;8.40;;
70169;SDS011;57543;45.442;9.212;2023-09-08T04:21:22;12.45;;;7.97;;
70169;SDS011;57543;45.442;9.212;2023-09-08T04:24:29;13.38;;;8.73;;
70169;SDS011;57543;45.442;9.212;2023-09-08T04:27:40;15.63;;;8.85;;
70169;SDS011;57543;45.442;9.212;2023-09-08T04:30:44;12.45;;;8.65;;
70169;SDS011;57543;45.442;9.212;2023-09-08T04:33:48;12.33;;;8.47;;
70169;SDS011;57543;45.442;9.212;2023-09-08T04:36:51;15.23;;;9.07;;
70169;SDS011;57543;45.442;9.212;2023-09-08T04:39:54;15.75;;;9.23;;
70169;SDS011;57543;45.442;9.212;2023-09-08T04:42:59;14.13;;;8.45;;
70169;SDS011;57543;45.442;9.212;2023-09-08T04:46:03;18.40;;;9.98;;
70169;SDS011;57543;45.442;9.212;2023-09-08T04:49:15;15.03;;;9.17;;
70169;SDS011;57543;45.442;9.212;2023-09-08T04:52:19;13.95;;;9.10;;
70169;SDS011;57543;45.442;9.212;2023-09-08T04:55:22;16.23;;;9.63;;
70169;SDS011;57543;45.442;9.212;2023-09-08T04:58:26;14.80;;;9.32;;
70169;SDS011;57543;45.442;9.212;2023-09-08T05:01:31;17.67;;;9.27;;
70169;SDS011;57543;45.442;9.212;2023-09-08T05:04:36;14.23;;;9.47;;
70169;SDS011;57543;45.442;9.212;2023-09-08T05:07:41;17.23;;;10.18;;
70169;SDS011;57543;45.442;9.212;2023-09-08T05:10:47;14.48;;;9.85;;
70169;SDS011;57543;45.442;9.212;2023-09-08T05:13:51;18.85;;;10.02;;
70169;SDS011;57543;45.442;9.212;2023-09-08T05:16:57;17.25;;;9.70;;
70169;SDS011;57543;45.442;9.212;2023-09-08T05:20:05;14.77;;;9.53;;
70169;SDS011;57543;45.442;9.212;2023-09-08T05:23:12;14.10;;;9.52;;
70169;SDS011;57543;45.442;9.212;2023-09-08T05:26:15;15.65;;;9.60;;
70169;SDS011;57543;45.442;9.212;2023-09-08T05:29:20;16.70;;;9.63;;
70169;SDS011;57543;45.442;9.212;2023-09-08T05:32:23;14.57;;;9.18;;
70169;SDS011;57543;45.442;9.212;2023-09-08T05:35:27;17.27;;;9.90;;
70169;SDS011;57543;45.442;9.212;2023-09-08T05:38:33;15.75;;;10.10;;
70169;SDS011;57543;45.442;9.212;2023-09-08T05:41:37;16.58;;;10.00;;
70169;SDS011;57543;45.442;9.212;2023-09-08T05:44:42;15.52;;;9.95;;
70169;SDS011;57543;45.442;9.212;2023-09-08T05:47:49;16.55;;;10.77;;
70169;SDS011;57543;45.442;9.212;2023-09-08T05:50:54;14.20;;;9.83;;
70169;SDS011;57543;45.442;9.212;2023-09-08T05:53:58;14.60;;;9.73;;
70169;SDS011;57543;45.442;9.212;2023-09-08T05:57:05;13.90;;;9.88;;
70169;SDS011;57543;45.442;9.212;2023-09-08T06:00:10;16.23;;;10.63;;
70169;SDS011;57543;45.442;9.212;2023-09-08T06:03:17;18.15;;;10.93;;
70169;SDS011;57543;45.442;9.212;2023-09-08T06:06:21;17.60;;;9.67;;
70169;SDS011;57543;45.442;9.212;2023-09-08T06:09:25;16.42;;;10.23;;
70169;SDS011;57543;45.442;9.212;2023-09-08T06:12:29;17.70;;;11.45;;
70169;SDS011;57543;45.442;9.212;2023-09-08T06:15:33;16.88;;;10.85;;
70169;SDS011;57543;45.442;9.212;2023-09-08T06:18:37;17.75;;;11.90;;
70169;SDS011;57543;45.442;9.212;2023-09-08T06:21:46;18.03;;;11.37;;
70169;SDS011;57543;45.442;9.212;2023-09-08T06:24:50;19.02;;;11.63;;
70169;SDS011;57543;45.442;9.212;2023-09-08T06:27:54;17.20;;;12.00;;
70169;SDS011;57543;45.442;9.212;2023-09-08T06:31:00;16.85;;;11.05;;
70169;SDS011;57543;45.442;9.212;2023-09-08T06:34:04;18.63;;;10.75;;
70169;SDS011;57543;45.442;9.212;2023-09-08T06:37:28;15.90;;;10.43;;
70169;SDS011;57543;45.442;9.212;2023-09-08T06:40:32;19.45;;;12.13;;
70169;SDS011;57543;45.442;9.212;2023-09-08T06:43:36;19.75;;;11.75;;
70169;SDS011;57543;45.442;9.212;2023-09-08T06:46:46;22.67;;;12.75;;
70169;SDS011;57543;45.442;9.212;2023-09-08T06:49:50;21.58;;;12.02;;
70169;SDS011;57543;45.442;9.212;2023-09-08T06:52:55;21.70;;;12.00;;
70169;SDS011;57543;45.442;9.212;2023-09-08T06:56:01;21.60;;;11.23;;
70169;SDS011;57543;45.442;9.212;2023-09-08T06:59:06;21.25;;;12.30;;
70169;SDS011;57543;45.442;9.212;2023-09-08T07:02:10;17.00;;;10.75;;
70169;SDS011;57543;45.442;9.212;2023-09-08T07:05:15;18.08;;;10.43;;
70169;SDS011;57543;45.442;9.212;2023-09-08T07:08:19;15.70;;;9.73;;
70169;SDS011;57543;45.442;9.212;2023-09-08T07:11:23;17.63;;;10.57;;
70169;SDS011;57543;45.442;9.212;2023-09-08T07:14:27;18.67;;;10.25;;
70169;SDS011;57543;45.442;9.212;2023-09-08T07:17:31;15.90;;;9.60;;
70169;SDS011;57543;45.442;9.212;2023-09-08T07:20:35;13.70;;;7.10;;
70169;SDS011;57543;45.442;9.212;2023-09-08T07:23:40;12.57;;;6.83;;
70169;SDS011;57543;45.442;9.212;2023-09-08T07:26:45;15.85;;;7.15;;
70169;SDS011;57543;45.442;9.212;2023-09-08T07:29:49;11.52;;;6.30;;
70169;SDS011;57543;45.442;9.212;2023-09-08T07:32:54;10.48;;;5.53;;
70169;SDS011;57543;45.442;9.212;2023-09-08T07:36:02;11.80;;;5.90;;
70169;SDS011;57543;45.442;9.212;2023-09-08T07:39:09;10.87;;;5.40;;
70169;SDS011;57543;45.442;9.212;2023-09-08T07:42:13;9.25;;;5.13;;
70169;SDS011;57543;45.442;9.212;2023-09-08T07:45:17;9.23;;;5.40;;
70169;SDS011;57543;45.442;9.212;2023-09-08T07:48:22;12.07;;;6.18;;
70169;SDS011;57543;45.442;9.212;2023-09-08T07:51:26;10.70;;;5.60;;
70169;SDS011;57543;45.442;9.212;2023-09-08T07:54:30;8.33;;;4.63;;
70169;SDS011;57543;45.442;9.212;2023-09-08T07:57:34;8.63;;;5.13;;
70169;SDS011;57543;45.442;9.212;2023-09-08T08:00:37;7.38;;;5.22;;
70169;SDS011;57543;45.442;9.212;2023-09-08T08:03:41;8.30;;;4.65;;
70169;SDS011;57543;45.442;9.212;2023-09-08T08:06:44;8.80;;;4.53;;
70169;SDS011;57543;45.442;9.212;2023-09-08T08:09:49;8.83;;;4.90;;
70169;SDS011;57543;45.442;9.212;2023-09-08T08:12:52;10.70;;;5.03;;
70169;SDS011;57543;45.442;9.212;2023-09-08T08:15:56;7.90;;;5.10;;
70169;SDS011;57543;45.442;9.212;2023-09-08T08:18:59;9.30;;;4.30;;
70169;SDS011;57543;45.442;9.212;2023-09-08T08:22:03;8.40;;;4.75;;
70169;SDS011;57543;45.442;9.212;2023-09-08T08:25:07;9.57;;;4.67;;
70169;SDS011;57543;45.442;9.212;2023-09-08T08:28:16;7.47;;;4.30;;
70169;SDS011;57543;45.442;9.212;2023-09-08T08:31:23;8.45;;;5.03;;
70169;SDS011;57543;45.442;9.212;2023-09-08T08:34:27;7.05;;;4.70;;
70169;SDS011;57543;45.442;9.212;2023-09-08T08:37:30;8.43;;;5.07;;
70169;SDS011;57543;45.442;9.212;2023-09-08T08:40:38;7.97;;;4.90;;
70169;SDS011;57543;45.442;9.212;2023-09-08T08:43:42;11.25;;;5.13;;
70169;SDS011;57543;45.442;9.212;2023-09-08T08:46:48;9.85;;;4.40;;
70169;SDS011;57543;45.442;9.212;2023-09-08T08:49:53;8.98;;;4.85;;
70169;SDS011;57543;45.442;9.212;2023-09-08T08:52:58;7.47;;;4.78;;
70169;SDS011;57543;45.442;9.212;2023-09-08T08:56:01;9.23;;;5.30;;
70169;SDS011;57543;45.442;9.212;2023-09-08T08:59:06;11.23;;;5.18;;
70169;SDS011;57543;45.442;9.212;2023-09-08T09:02:11;10.95;;;5.43;;
70169;SDS011;57543;45.442;9.212;2023-09-08T09:05:15;7.63;;;5.32;;
70169;SDS011;57543;45.442;9.212;2023-09-08T09:08:20;7.95;;;5.35;;
70169;SDS011;57543;45.442;9.212;2023-09-08T09:11:26;9.57;;;5.80;;
70169;SDS011;57543;45.442;9.212;2023-09-08T09:14:33;9.80;;;5.45;;
70169;SDS011;57543;45.442;9.212;2023-09-08T09:17:38;9.85;;;5.60;;
70169;SDS011;57543;45.442;9.212;2023-09-08T09:20:52;6.95;;;5.00;;
70169;SDS011;57543;45.442;9.212;2023-09-08T09:23:58;6.85;;;4.80;;
70169;SDS011;57543;45.442;9.212;2023-09-08T09:27:01;8.90;;;5.03;;
70169;SDS011;57543;45.442;9.212;2023-09-08T09:30:07;7.63;;;4.78;;
70169;SDS011;57543;45.442;9.212;2023-09-08T09:33:15;8.85;;;4.95;;
70169;SDS011;57543;45.442;9.212;2023-09-08T09:36:21;6.80;;;4.88;;
70169;SDS011;57543;45.442;9.212;2023-09-08T09:39:26;7.53;;;4.68;;
70169;SDS011;57543;45.442;9.212;2023-09-08T09:42:30;6.63;;;4.87;;
70169;SDS011;57543;45.442;9.212;2023-09-08T09:45:38;9.27;;;5.20;;
70169;SDS011;57543;45.442;9.212;2023-09-08T09:48:42;8.32;;;5.38;;
70169;SDS011;57543;45.442;9.212;2023-09-08T09:51:48;8.50;;;5.10;;
70169;SDS011;57543;45.442;9.212;2023-09-08T09:54:54;8.10;;;5.32;;
70169;SDS011;57543;45.442;9.212;2023-09-08T09:57:59;8.40;;;5.20;;
70169;SDS011;57543;45.442;9.212;2023-09-08T10:01:06;10.40;;;5.60;;
70169;SDS011;57543;45.442;9.212;2023-09-08T10:04:10;7.57;;;5.00;;
70169;SDS011;57543;45.442;9.212;2023-09-08T10:07:15;10.50;;;5.78;;
70169;SDS011;57543;45.442;9.212;2023-09-08T10:10:20;6.72;;;5.22;;
70169;SDS011;57543;45.442;9.212;2023-09-08T10:13:26;8.40;;;5.20;;
70169;SDS011;57543;45.442;9.212;2023-09-08T10:16:33;8.32;;;4.93;;
70169;SDS011;57543;45.442;9.212;2023-09-08T10:19:38;8.65;;;4.93;;
70169;SDS011;57543;45.442;9.212;2023-09-08T10:22:44;7.43;;;4.78;;
70169;SDS011;57543;45.442;9.212;2023-09-08T10:25:50;8.70;;;4.80;;
70169;SDS011;57543;45.442;9.212;2023-09-08T10:29:02;7.87;;;4.47;;
70169;SDS011;57543;45.442;9.212;2023-09-08T10:32:09;7.70;;;5.38;;
70169;SDS011;57543;45.442;9.212;2023-09-08T10:35:13;7.78;;;5.80;;
70169;SDS011;57543;45.442;9.212;2023-09-08T10:41:28;10.05;;;5.65;;
70169;SDS011;57543;45.442;9.212;2023-09-08T10:44:32;7.20;;;5.00;;
70169;SDS011;57543;45.442;9.212;2023-09-08T10:50:48;8.05;;;4.68;;
70169;SDS011;57543;45.442;9.212;2023-09-08T10:53:52;7.22;;;4.82;;
70169;SDS011;57543;45.442;9.212;2023-09-08T10:56:56;9.18;;;5.53;;
70169;SDS011;57543;45.442;9.212;2023-09-08T11:00:04;7.60;;;4.67;;
70169;SDS011;57543;45.442;9.212;2023-09-08T11:03:14;9.93;;;5.07;;
70169;SDS011;57543;45.442;9.212;2023-09-08T11:06:32;6.93;;;4.72;;
70169;SDS011;57543;45.442;9.212;2023-09-08T11:09:36;7.57;;;5.00;;
70169;SDS011;57543;45.442;9.212;2023-09-08T11:12:41;7.28;;;4.60;;
70169;SDS011;57543;45.442;9.212;2023-09-08T11:15:45;8.70;;;4.63;;
70169;SDS011;57543;45.442;9.212;2023-09-08T11:18:50;12.18;;;4.65;;
70169;SDS011;57543;45.442;9.212;2023-09-08T11:21:55;7.22;;;4.93;;
70169;SDS011;57543;45.442;9.212;2023-09-08T11:25:01;6.70;;;5.07;;
70169;SDS011;57543;45.442;9.212;2023-09-08T11:28:07;7.88;;;4.90;;
70169;SDS011;57543;45.442;9.212;2023-09-08T11:31:11;6.97;;;4.43;;
70169;SDS011;57543;45.442;9.212;2023-09-08T11:34:16;8.68;;;4.75;;
70169;SDS011;57543;45.442;9.212;2023-09-08T11:37:22;8.70;;;4.97;;
70169;SDS011;57543;45.442;9.212;2023-09-08T11:40:27;7.05;;;4.65;;
70169;SDS011;57543;45.442;9.212;2023-09-08T11:43:30;8.75;;;5.35;;
70169;SDS011;57543;45.442;9.212;2023-09-08T11:46:37;8.53;;;5.13;;
70169;SDS011;57543;45.442;9.212;2023-09-08T11:49:41;7.65;;;5.03;;
70169;SDS011;57543;45.442;9.212;2023-09-08T11:52:46;8.45;;;4.78;;
70169;SDS011;57543;45.442;9.212;2023-09-08T11:55:51;8.30;;;5.15;;
70169;SDS011;57543;45.442;9.212;2023-09-08T11:58:55;7.50;;;4.82;;
70169;SDS011;57543;45.442;9.212;2023-09-08T12:01:59;7.50;;;5.13;;
70169;SDS011;57543;45.442;9.212;2023-09-08T12:05:03;7.38;;;4.75;;
70169;SDS011;57543;45.442;9.212;2023-09-08T12:08:08;9.50;;;5.38;;
70169;SDS011;57543;45.442;9.212;2023-09-08T12:11:12;9.40;;;5.13;;
70169;SDS011;57543;45.442;9.212;2023-09-08T12:14:21;10.43;;;5.70;;
70169;SDS011;57543;45.442;9.212;2023-09-08T12:17:25;9.03;;;5.13;;
70169;SDS011;57543;45.442;9.212;2023-09-08T12:20:31;7.35;;;4.63;;
70169;SDS011;57543;45.442;9.212;2023-09-08T12:23:47;7.57;;;5.13;;
70169;SDS011;57543;45.442;9.212;2023-09-08T12:26:52;8.48;;;5.10;;
70169;SDS011;57543;45.442;9.212;2023-09-08T12:29:58;9.13;;;5.60;;
70169;SDS011;57543;45.442;9.212;2023-09-08T12:33:07;7.67;;;5.27;;
70169;SDS011;57543;45.442;9.212;2023-09-08T12:36:23;8.93;;;5.03;;
70169;SDS011;57543;45.442;9.212;2023-09-08T12:39:26;7.75;;;4.88;;
70169;SDS011;57543;45.442;9.212;2023-09-08T12:42:35;7.63;;;5.20;;
70169;SDS011;57543;45.442;9.212;2023-09-08T12:45:39;8.43;;;5.57;;
70169;SDS011;57543;45.442;9.212;2023-09-08T12:48:45;7.87;;;5.23;;
70169;SDS011;57543;45.442;9.212;2023-09-08T12:51:49;7.97;;;5.28;;
70169;SDS011;57543;45.442;9.212;2023-09-08T12:54:55;9.02;;;5.60;;
70169;SDS011;57543;45.442;9.212;2023-09-08T12:57:59;9.43;;;5.68;;
70169;SDS011;57543;45.442;9.212;2023-09-08T13:01:03;7.53;;;5.70;;
70169;SDS011;57543;45.442;9.212;2023-09-08T13:04:08;10.63;;;5.00;;
70169;SDS011;57543;45.442;9.212;2023-09-08T13:07:11;7.82;;;5.32;;
70169;SDS011;57543;45.442;9.212;2023-09-08T13:10:15;8.00;;;4.97;;
70169;SDS011;57543;45.442;9.212;2023-09-08T13:13:21;9.05;;;4.97;;
70169;SDS011;57543;45.442;9.212;2023-09-08T13:16:25;6.95;;;5.10;;
70169;SDS011;57543;45.442;9.212;2023-09-08T13:19:29;9.97;;;5.87;;
70169;SDS011;57543;45.442;9.212;2023-09-08T13:22:33;9.02;;;6.00;;
70169;SDS011;57543;45.442;9.212;2023-09-08T13:25:37;8.00;;;5.63;;
70169;SDS011;57543;45.442;9.212;2023-09-08T13:28:45;7.72;;;5.43;;
70169;SDS011;57543;45.442;9.212;2023-09-08T13:31:48;8.88;;;6.50;;
70169;SDS011;57543;45.442;9.212;2023-09-08T13:34:52;11.03;;;5.77;;
70169;SDS011;57543;45.442;9.212;2023-09-08T13:37:56;10.38;;;5.68;;
70169;SDS011;57543;45.442;9.212;2023-09-08T13:41:03;8.77;;;6.10;;
70169;SDS011;57543;45.442;9.212;2023-09-08T13:44:07;8.05;;;6.10;;
70169;SDS011;57543;45.442;9.212;2023-09-08T13:47:13;7.90;;;5.53;;
70169;SDS011;57543;45.442;9.212;2023-09-08T13:50:17;7.63;;;5.07;;
70169;SDS011;57543;45.442;9.212;2023-09-08T13:53:21;7.60;;;5.90;;
70169;SDS011;57543;45.442;9.212;2023-09-08T13:56:25;7.40;;;5.72;;
70169;SDS011;57543;45.442;9.212;2023-09-08T13:59:32;8.48;;;5.63;;
70169;SDS011;57543;45.442;9.212;2023-09-08T14:02:36;7.70;;;5.22;;
70169;SDS011;57543;45.442;9.212;2023-09-08T14:05:40;8.57;;;5.50;;
70169;SDS011;57543;45.442;9.212;2023-09-08T14:08:44;9.40;;;5.22;;
70169;SDS011;57543;45.442;9.212;2023-09-08T14:11:50;9.15;;;5.65;;
70169;SDS011;57543;45.442;9.212;2023-09-08T14:14:54;11.07;;;5.78;;
70169;SDS011;57543;45.442;9.212;2023-09-08T14:17:57;7.82;;;5.45;;
70169;SDS011;57543;45.442;9.212;2023-09-08T14:21:04;10.23;;;6.00;;
70169;SDS011;57543;45.442;9.212;2023-09-08T14:24:08;7.28;;;5.30;;
70169;SDS011;57543;45.442;9.212;2023-09-08T14:27:12;10.15;;;5.60;;
70169;SDS011;57543;45.442;9.212;2023-09-08T14:30:16;8.27;;;5.60;;
70169;SDS011;57543;45.442;9.212;2023-09-08T14:33:19;10.80;;;5.50;;
70169;SDS011;57543;45.442;9.212;2023-09-08T14:36:25;8.73;;;5.57;;
70169;SDS011;57543;45.442;9.212;2023-09-08T14:39:28;9.60;;;6.03;;
70169;SDS011;57543;45.442;9.212;2023-09-08T14:42:34;10.18;;;5.50;;
70169;SDS011;57543;45.442;9.212;2023-09-08T14:45:38;10.88;;;5.93;;
70169;SDS011;57543;45.442;9.212;2023-09-08T14:48:44;7.68;;;5.07;;
70169;SDS011;57543;45.442;9.212;2023-09-08T14:51:48;9.83;;;6.00;;
70169;SDS011;57543;45.442;9.212;2023-09-08T14:54:54;10.85;;;5.85;;
70169;SDS011;57543;45.442;9.212;2023-09-08T14:57:59;8.82;;;5.43;;
70169;SDS011;57543;45.442;9.212;2023-09-08T15:01:05;10.55;;;5.82;;
70169;SDS011;57543;45.442;9.212;2023-09-08T15:04:11;8.30;;;5.50;;
70169;SDS011;57543;45.442;9.212;2023-09-08T15:07:15;7.77;;;5.70;;
70169;SDS011;57543;45.442;9.212;2023-09-08T15:10:19;9.43;;;5.43;;
70169;SDS011;57543;45.442;9.212;2023-09-08T15:13:22;7.15;;;5.63;;
70169;SDS011;57543;45.442;9.212;2023-09-08T15:16:26;10.60;;;6.30;;
70169;SDS011;57543;45.442;9.212;2023-09-08T15:19:30;12.65;;;6.25;;
70169;SDS011;57543;45.442;9.212;2023-09-08T15:22:37;8.53;;;5.77;;
70169;SDS011;57543;45.442;9.212;2023-09-08T15:25:40;10.00;;;5.82;;
70169;SDS011;57543;45.442;9.212;2023-09-08T15:28:44;9.02;;;5.68;;
70169;SDS011;57543;45.442;9.212;2023-09-08T15:31:47;8.15;;;5.80;;
70169;SDS011;57543;45.442;9.212;2023-09-08T15:34:54;10.13;;;5.63;;
70169;SDS011;57543;45.442;9.212;2023-09-08T15:37:57;9.77;;;5.70;;
70169;SDS011;57543;45.442;9.212;2023-09-08T15:44:10;10.10;;;6.35;;
70169;SDS011;57543;45.442;9.212;2023-09-08T15:47:13;8.65;;;5.72;;
70169;SDS011;57543;45.442;9.212;2023-09-08T15:50:20;7.68;;;5.43;;
70169;SDS011;57543;45.442;9.212;2023-09-08T15:53:23;9.37;;;5.93;;
70169;SDS011;57543;45.442;9.212;2023-09-08T15:56:27;10.43;;;5.90;;
70169;SDS011;57543;45.442;9.212;2023-09-08T15:59:31;9.13;;;5.90;;
70169;SDS011;57543;45.442;9.212;2023-09-08T16:02:34;8.68;;;6.20;;
70169;SDS011;57543;45.442;9.212;2023-09-08T16:05:38;8.65;;;5.82;;
70169;SDS011;57543;45.442;9.212;2023-09-08T16:08:42;9.93;;;5.30;;
70169;SDS011;57543;45.442;9.212;2023-09-08T16:11:55;8.23;;;5.85;;
70169;SDS011;57543;45.442;9.212;2023-09-08T16:14:59;8.98;;;6.10;;
70169;SDS011;57543;45.442;9.212;2023-09-08T16:18:02;8.75;;;6.25;;
70169;SDS011;57543;45.442;9.212;2023-09-08T16:21:08;8.18;;;6.22;;
70169;SDS011;57543;45.442;9.212;2023-09-08T16:24:11;8.00;;;6.03;;
70169;SDS011;57543;45.442;9.212;2023-09-08T16:27:15;8.63;;;5.45;;
70169;SDS011;57543;45.442;9.212;2023-09-08T16:30:19;8.55;;;5.65;;
70169;SDS011;57543;45.442;9.212;2023-09-08T16:33:25;8.38;;;6.07;;
70169;SDS011;57543;45.442;9.212;2023-09-08T16:36:28;10.68;;;5.93;;
70169;SDS011;57543;45.442;9.212;2023-09-08T16:39:31;7.63;;;5.73;;
70169;SDS011;57543;45.442;9.212;2023-09-08T16:42:37;8.90;;;5.00;;
70169;SDS011;57543;45.442;9.212;2023-09-08T16:46:04;9.40;;;5.60;;
70169;SDS011;57543;45.442;9.212;2023-09-08T16:49:08;8.75;;;6.10;;
70169;SDS011;57543;45.442;9.212;2023-09-08T16:52:11;9.65;;;5.68;;
70169;SDS011;57543;45.442;9.212;2023-09-08T16:55:15;10.27;;;5.57;;
70169;SDS011;57543;45.442;9.212;2023-09-08T16:58:22;8.65;;;5.43;;
70169;SDS011;57543;45.442;9.212;2023-09-08T17:01:26;9.98;;;5.93;;
70169;SDS011;57543;45.442;9.212;2023-09-08T17:04:30;11.77;;;6.47;;
70169;SDS011;57543;45.442;9.212;2023-09-08T17:07:34;8.07;;;5.80;;
70169;SDS011;57543;45.442;9.212;2023-09-08T17:10:38;11.13;;;6.20;;
70169;SDS011;57543;45.442;9.212;2023-09-08T17:13:41;8.40;;;6.05;;
70169;SDS011;57543;45.442;9.212;2023-09-08T17:16:44;10.02;;;6.10;;
70169;SDS011;57543;45.442;9.212;2023-09-08T17:19:48;8.85;;;5.88;;
70169;SDS011;57543;45.442;9.212;2023-09-08T17:23:10;9.50;;;5.55;;
70169;SDS011;57543;45.442;9.212;2023-09-08T17:26:14;9.37;;;6.23;;
70169;SDS011;57543;45.442;9.212;2023-09-08T17:29:17;8.75;;;5.70;;
70169;SDS011;57543;45.442;9.212;2023-09-08T17:32:21;9.85;;;5.70;;
70169;SDS011;57543;45.442;9.212;2023-09-08T17:35:25;13.75;;;6.22;;
70169;SDS011;57543;45.442;9.212;2023-09-08T17:38:29;9.40;;;6.05;;
70169;SDS011;57543;45.442;9.212;2023-09-08T17:41:35;8.13;;;6.07;;
70169;SDS011;57543;45.442;9.212;2023-09-08T17:44:39;8.70;;;6.10;;
70169;SDS011;57543;45.442;9.212;2023-09-08T17:47:45;9.15;;;6.40;;
70169;SDS011;57543;45.442;9.212;2023-09-08T17:50:51;9.95;;;6.55;;
70169;SDS011;57543;45.442;9.212;2023-09-08T17:53:55;11.88;;;6.60;;
70169;SDS011;57543;45.442;9.212;2023-09-08T17:56:59;9.50;;;6.40;;
70169;SDS011;57543;45.442;9.212;2023-09-08T18:00:03;9.35;;;6.32;;
70169;SDS011;57543;45.442;9.212;2023-09-08T18:03:08;11.38;;;6.65;;
70169;SDS011;57543;45.442;9.212;2023-09-08T18:06:12;10.40;;;6.78;;
70169;SDS011;57543;45.442;9.212;2023-09-08T18:09:17;10.35;;;6.55;;
70169;SDS011;57543;45.442;9.212;2023-09-08T18:12:20;12.47;;;6.43;;
70169;SDS011;57543;45.442;9.212;2023-09-08T18:15:24;11.05;;;6.70;;
70169;SDS011;57543;45.442;9.212;2023-09-08T18:18:28;11.00;;;7.32;;
70169;SDS011;57543;45.442;9.212;2023-09-08T18:21:34;10.85;;;7.07;;
70169;SDS011;57543;45.442;9.212;2023-09-08T18:24:37;11.27;;;7.40;;
70169;SDS011;57543;45.442;9.212;2023-09-08T18:27:41;12.27;;;7.07;;
70169;SDS011;57543;45.442;9.212;2023-09-08T18:30:51;9.90;;;6.88;;
70169;SDS011;57543;45.442;9.212;2023-09-08T18:34:14;10.70;;;7.15;;
70169;SDS011;57543;45.442;9.212;2023-09-08T18:37:17;11.35;;;6.90;;
70169;SDS011;57543;45.442;9.212;2023-09-08T18:40:23;10.75;;;6.97;;
70169;SDS011;57543;45.442;9.212;2023-09-08T18:43:27;9.37;;;6.70;;